LGAD/PYR METAR and TAF weather

Enter ICAO airport designator
Station Type Date Time Source
LGAD METAR 2019/06/18 14:20 UTC NOAA

LGAD 181420Z 29010KT 9999 FEW020 31/14 Q1012


Station Type Date Time Source
LGAD Decoded METAR 2019/06/18 14:20 UTC NOAA

Andravida Airport , Greece (LGAD) 37-55N 021-17E 14M
Jun 18, 2019 - 10:20 AM EDT / 2019.06.18 1420 UTC
Wind: from the WNW (290 degrees) at 12 MPH (10 KT):0
Visibility: greater than 7 mile(s):0
Sky conditions: mostly clear
Temperature: 87 F (31 C)
Dew Point: 57 F (14 C)
Relative Humidity: 35%
Pressure (altimeter): 29.88 in. Hg (1012 hPa)
ob: LGAD 181420Z 29010KT 9999 FEW020 31/14 Q1012
cycle: 14

Station Type Date Time Source
LGAD TAF 2011/03/20 15:06 UTC NOAA

TAF TAF LGAD 201400Z 2015/2103 06010KT 9999 FEW020 BKN080 PROB40
TEMPO 2015/2021 6000 RA SCT020 BKN080 PROB30
TEMPO 2015/2021 4000 TSRA FEW018CB SCT025 BKN080

Example: see airport list